Time;durP1;ratioP1;P1;durP2;ratioP2;P2;SDS_P1;SDS_P2;PMS_P1;PMS_P2;Temp;Humidity;BMP_temperature;BMP_pressure;BME280_temperature;BME280_humidity;BME280_pressure;Samples;Min_cycle;Max_cycle;Signal;HPM_P1;HPM_P2
2022/06/18 00:00:45;;;;;;;;;;;23.60;96.20;;;;;;5073910;28;19955;-55
2022/06/18 00:03:11;;;;;;;;;;;23.60;96.20;;;;;;5073699;28;19908;-55
2022/06/18 00:05:37;;;;;;;;;;;23.60;96.20;;;;;;5073993;28;20435;-55
2022/06/18 00:08:06;;;;;;;;;;;23.60;96.20;;;;;;5074112;28;19913;-55
2022/06/18 00:10:32;;;;;;;;;;;23.60;96.20;;;;;;5073910;28;19909;-55
2022/06/18 00:15:56;;;;;;;;;;;23.60;96.20;;;;;;5073563;28;19919;-54
2022/06/18 00:18:21;;;;;;;;;;;23.60;96.20;;;;;;5073474;28;19995;-55
2022/06/18 00:20:47;;;;;;;;;;;23.60;96.20;;;;;;5073774;28;20001;-55
2022/06/18 00:23:14;;;;;;;;;;;23.60;96.20;;;;;;5073518;28;19919;-55
2022/06/18 00:25:40;;;;;;;;;;;23.60;96.20;;;;;;5074069;28;19916;-55
2022/06/18 00:28:20;;;;;;;;;;;23.60;96.20;;;;;;5073519;28;19913;-55
2022/06/18 00:30:46;;;;;;;;;;;23.60;96.20;;;;;;5074049;28;20316;-54
2022/06/18 00:33:12;;;;;;;;;;;23.60;96.20;;;;;;5073703;28;19999;-54
2022/06/18 00:35:38;;;;;;;;;;;23.60;96.20;;;;;;5073296;28;20011;-51
2022/06/18 00:38:05;;;;;;;;;;;23.60;96.20;;;;;;5073327;28;19923;-55
2022/06/18 00:40:32;;;;;;;;;;;23.60;96.20;;;;;;5073307;28;19944;-53
2022/06/18 00:42:59;;;;;;;;;;;23.60;96.20;;;;;;5073187;28;19954;-52
2022/06/18 00:45:26;;;;;;;;;;;23.60;96.20;;;;;;5073244;28;19908;-55
2022/06/18 00:48:07;;;;;;;;;;;23.60;96.20;;;;;;5073408;28;20362;-55
2022/06/18 00:50:38;;;;;;;;;;;23.60;96.20;;;;;;5073191;28;19912;-55
2022/06/18 00:53:08;;;;;;;;;;;23.60;96.20;;;;;;5073498;28;19971;-54
2022/06/18 00:55:40;;;;;;;;;;;23.60;96.20;;;;;;5073026;28;19920;-55
2022/06/18 00:58:17;;;;;;;;;;;23.60;96.20;;;;;;5073165;28;19909;-54
2022/06/18 01:00:44;;;;;;;;;;;23.60;96.20;;;;;;5073279;28;19912;-55
2022/06/18 01:03:22;;;;;;;;;;;23.60;96.20;;;;;;5073281;28;19908;-53
2022/06/18 01:05:48;;;;;;;;;;;23.60;96.20;;;;;;5072981;28;19909;-56
2022/06/18 01:08:16;;;;;;;;;;;23.60;96.10;;;;;;5075402;28;19974;-56
2022/06/18 01:10:45;;;;;;;;;;;23.60;96.10;;;;;;5076690;28;20347;-55
2022/06/18 01:13:13;;;;;;;;;;;23.60;96.20;;;;;;5076433;28;19913;-54
2022/06/18 01:15:40;;;;;;;;;;;23.60;96.10;;;;;;5058638;28;19912;-55
2022/06/18 01:18:06;;;;;;;;;;;23.60;96.20;;;;;;5058694;28;19920;-55
2022/06/18 01:20:36;;;;;;;;;;;23.60;96.10;;;;;;5076649;28;19908;-55
2022/06/18 01:23:01;;;;;;;;;;;23.60;96.10;;;;;;5076360;28;19915;-54
2022/06/18 01:25:28;;;;;;;;;;;23.60;96.10;;;;;;5058295;28;20015;-54
2022/06/18 01:27:54;;;;;;;;;;;23.60;96.10;;;;;;5076544;28;19919;-54
2022/06/18 01:30:23;;;;;;;;;;;23.60;96.10;;;;;;5076321;28;19908;-51
2022/06/18 01:32:49;;;;;;;;;;;23.60;96.20;;;;;;5076477;28;19962;-51
2022/06/18 01:35:17;;;;;;;;;;;23.60;96.10;;;;;;5076021;28;19916;-54
2022/06/18 01:37:42;;;;;;;;;;;23.60;96.10;;;;;;5076138;28;19912;-54
2022/06/18 01:40:09;;;;;;;;;;;23.60;96.10;;;;;;5076312;28;19970;-55
2022/06/18 01:42:46;;;;;;;;;;;23.60;96.10;;;;;;5075933;28;19912;-55
2022/06/18 01:45:15;;;;;;;;;;;23.60;96.10;;;;;;5076167;28;19908;-54
2022/06/18 01:47:43;;;;;;;;;;;23.60;96.10;;;;;;5058206;28;19944;-55
2022/06/18 01:50:23;;;;;;;;;;;23.60;96.10;;;;;;5075810;28;20381;-53
2022/06/18 01:53:09;;;;;;;;;;;23.60;96.10;;;;;;5058110;28;19908;-54
2022/06/18 01:55:47;;;;;;;;;;;23.60;96.10;;;;;;5075761;28;20329;-54
2022/06/18 01:58:16;;;;;;;;;;;23.60;96.10;;;;;;5076007;28;19913;-56
2022/06/18 02:00:42;;;;;;;;;;;23.60;96.10;;;;;;5075986;28;19954;-56
2022/06/18 02:03:09;;;;;;;;;;;23.60;96.10;;;;;;5075860;28;19940;-56
2022/06/18 02:05:34;;;;;;;;;;;23.60;96.00;;;;;;5075737;28;20004;-56
2022/06/18 02:08:00;;;;;;;;;;;23.60;96.00;;;;;;5075506;28;19953;-54
2022/06/18 02:10:28;;;;;;;;;;;23.60;96.00;;;;;;5075715;28;19916;-54
2022/06/18 02:12:56;;;;;;;;;;;23.60;96.00;;;;;;5075640;28;19909;-51
2022/06/18 02:15:24;;;;;;;;;;;23.60;96.00;;;;;;5075537;28;19958;-56
2022/06/18 02:17:50;;;;;;;;;;;23.60;96.00;;;;;;5075410;28;20011;-51
2022/06/18 02:20:19;;;;;;;;;;;23.60;96.00;;;;;;5075297;28;19939;-55
2022/06/18 02:22:46;;;;;;;;;;;23.60;96.00;;;;;;5075080;28;19908;-51
2022/06/18 02:25:12;;;;;;;;;;;23.60;96.00;;;;;;5075519;28;19908;-51
2022/06/18 02:27:39;;;;;;;;;;;23.60;96.00;;;;;;5075065;28;19915;-53
2022/06/18 02:30:05;;;;;;;;;;;23.60;96.00;;;;;;5075352;28;19909;-54
2022/06/18 02:32:37;;;;;;;;;;;23.60;96.00;;;;;;5075188;28;19916;-54
2022/06/18 02:35:13;;;;;;;;;;;23.60;96.00;;;;;;5074968;28;19913;-55
2022/06/18 02:37:39;;;;;;;;;;;23.60;96.00;;;;;;5074928;28;19917;-55
2022/06/18 02:40:13;;;;;;;;;;;23.60;96.00;;;;;;5056860;28;20010;-54
2022/06/18 02:42:39;;;;;;;;;;;23.60;96.00;;;;;;5075120;28;19909;-52
2022/06/18 02:45:05;;;;;;;;;;;23.60;96.00;;;;;;5075064;28;19909;-53
2022/06/18 02:47:30;;;;;;;;;;;23.60;96.00;;;;;;5056964;28;19908;-53
2022/06/18 02:49:58;;;;;;;;;;;23.60;96.00;;;;;;5075184;28;19979;-54
2022/06/18 02:52:25;;;;;;;;;;;23.50;95.90;;;;;;5075198;28;19956;-54
2022/06/18 02:54:55;;;;;;;;;;;23.60;96.00;;;;;;5074496;28;19920;-54
2022/06/18 02:57:24;;;;;;;;;;;23.60;96.00;;;;;;5074793;28;19908;-53
2022/06/18 02:59:49;;;;;;;;;;;23.60;96.00;;;;;;5074476;28;19955;-53
2022/06/18 03:02:15;;;;;;;;;;;23.60;96.00;;;;;;5074989;28;19909;-55
2022/06/18 03:04:40;;;;;;;;;;;23.60;95.90;;;;;;5074525;28;19908;-50
2022/06/18 03:07:05;;;;;;;;;;;23.60;95.90;;;;;;5074630;28;19909;-53
2022/06/18 03:12:06;;;;;;;;;;;23.60;96.00;;;;;;5074363;28;20006;-54
2022/06/18 03:12:16;;;;;;;;;;;23.60;95.90;;;;;;5074028;28;19915;-54
2022/06/18 03:14:42;;;;;;;;;;;23.60;95.90;;;;;;5074039;28;19999;-55
2022/06/18 03:17:07;;;;;;;;;;;23.60;95.90;;;;;;5074397;28;19913;-54
2022/06/18 03:19:35;;;;;;;;;;;23.60;95.90;;;;;;5056275;28;19912;-55
2022/06/18 03:22:06;;;;;;;;;;;23.60;95.90;;;;;;5074234;28;19909;-52
2022/06/18 03:24:31;;;;;;;;;;;23.60;95.90;;;;;;5074282;28;20359;-54
2022/06/18 03:26:57;;;;;;;;;;;23.50;95.90;;;;;;5074175;28;19916;-54
2022/06/18 03:29:23;;;;;;;;;;;23.60;95.90;;;;;;5073897;28;19909;-56
2022/06/18 03:31:48;;;;;;;;;;;23.60;95.90;;;;;;5073939;28;19909;-54
2022/06/18 03:34:13;;;;;;;;;;;23.50;95.90;;;;;;5074012;28;19908;-51
2022/06/18 03:36:39;;;;;;;;;;;23.50;95.90;;;;;;5073915;28;19913;-53
2022/06/18 03:39:05;;;;;;;;;;;23.50;95.90;;;;;;5074195;28;19909;-53
2022/06/18 03:41:30;;;;;;;;;;;23.60;95.90;;;;;;5074048;28;20369;-54
2022/06/18 03:43:56;;;;;;;;;;;23.60;95.90;;;;;;5056188;28;20351;-56
2022/06/18 03:46:21;;;;;;;;;;;23.60;95.90;;;;;;5073784;28;20427;-55
2022/06/18 03:48:55;;;;;;;;;;;23.50;95.80;;;;;;5056020;28;19963;-54
2022/06/18 03:51:20;;;;;;;;;;;23.50;95.80;;;;;;5073706;28;19936;-55
2022/06/18 03:53:46;;;;;;;;;;;23.60;95.80;;;;;;5055959;28;19959;-55
2022/06/18 03:56:13;;;;;;;;;;;23.60;95.80;;;;;;5073947;28;19921;-55
2022/06/18 03:58:39;;;;;;;;;;;23.60;95.80;;;;;;5055888;28;20024;-55
2022/06/18 04:01:04;;;;;;;;;;;23.60;95.80;;;;;;5073972;28;20313;-54
2022/06/18 04:03:30;;;;;;;;;;;23.60;95.80;;;;;;5073536;28;20398;-54
2022/06/18 04:05:55;;;;;;;;;;;23.60;95.80;;;;;;5073559;28;19949;-56
2022/06/18 04:08:21;;;;;;;;;;;23.60;95.70;;;;;;5073560;28;19915;-53
2022/06/18 04:10:47;;;;;;;;;;;23.60;95.80;;;;;;5055784;28;20340;-54
2022/06/18 04:13:13;;;;;;;;;;;23.60;95.70;;;;;;5074083;28;20335;-54
2022/06/18 04:15:39;;;;;;;;;;;23.60;95.70;;;;;;5073473;28;20037;-53
2022/06/18 04:18:04;;;;;;;;;;;23.60;95.70;;;;;;5073854;28;19959;-53
2022/06/18 04:20:31;;;;;;;;;;;23.70;95.70;;;;;;5073272;28;19909;-55
2022/06/18 04:22:57;;;;;;;;;;;23.60;95.60;;;;;;5055523;28;19909;-55
2022/06/18 04:25:23;;;;;;;;;;;23.70;95.60;;;;;;5073617;28;20270;-51
2022/06/18 04:27:48;;;;;;;;;;;23.70;95.60;;;;;;5073568;28;20283;-54
2022/06/18 04:30:15;;;;;;;;;;;23.70;95.60;;;;;;5073850;28;19908;-52
2022/06/18 04:32:40;;;;;;;;;;;23.70;95.50;;;;;;5073231;28;19935;-52
2022/06/18 04:35:08;;;;;;;;;;;23.70;95.30;;;;;;5055443;28;19942;-54
2022/06/18 04:37:33;;;;;;;;;;;23.70;95.30;;;;;;5073609;28;19917;-53
2022/06/18 04:39:59;;;;;;;;;;;23.70;95.30;;;;;;5073539;28;19908;-53
2022/06/18 04:42:25;;;;;;;;;;;23.70;95.20;;;;;;5074602;28;20359;-55
2022/06/18 04:44:51;;;;;;;;;;;23.70;95.30;;;;;;5077248;28;19948;-55
2022/06/18 04:47:16;;;;;;;;;;;23.70;95.20;;;;;;5077233;28;19961;-53
2022/06/18 04:49:42;;;;;;;;;;;23.70;95.20;;;;;;5076916;28;19916;-53
2022/06/18 04:52:07;;;;;;;;;;;23.70;95.30;;;;;;5077535;28;19913;-54
2022/06/18 04:54:32;;;;;;;;;;;23.70;95.20;;;;;;5076724;28;19927;-55
2022/06/18 04:56:58;;;;;;;;;;;23.70;95.20;;;;;;5059090;28;20362;-55
2022/06/18 04:59:24;;;;;;;;;;;23.70;95.30;;;;;;5076905;28;19913;-54
2022/06/18 05:02:05;;;;;;;;;;;23.70;95.30;;;;;;5059052;28;20294;-53
2022/06/18 05:04:31;;;;;;;;;;;23.70;95.20;;;;;;5076855;28;19908;-54
2022/06/18 05:06:57;;;;;;;;;;;23.70;95.30;;;;;;5076395;28;19916;-53
2022/06/18 05:09:22;;;;;;;;;;;23.70;95.30;;;;;;5076994;28;19940;-50
2022/06/18 05:11:48;;;;;;;;;;;23.70;95.30;;;;;;5076564;28;20317;-53
2022/06/18 05:14:14;;;;;;;;;;;23.70;95.30;;;;;;5076584;28;19912;-54
2022/06/18 05:16:40;;;;;;;;;;;23.70;95.30;;;;;;5076460;28;19912;-53
2022/06/18 05:19:05;;;;;;;;;;;23.70;95.30;;;;;;5076655;28;20374;-54
2022/06/18 05:21:31;;;;;;;;;;;23.70;95.40;;;;;;5058684;28;19909;-54
2022/06/18 05:23:56;;;;;;;;;;;23.70;95.40;;;;;;5076551;28;19916;-54
2022/06/18 05:26:22;;;;;;;;;;;23.70;95.50;;;;;;5076158;28;19908;-55
2022/06/18 05:28:47;;;;;;;;;;;23.70;95.30;;;;;;5076440;28;19915;-55
2022/06/18 05:31:13;;;;;;;;;;;23.70;95.30;;;;;;5076420;28;19920;-54
2022/06/18 05:33:38;;;;;;;;;;;23.70;95.40;;;;;;5076378;28;19908;-53
2022/06/18 05:36:05;;;;;;;;;;;23.70;95.40;;;;;;5075928;28;19912;-54
2022/06/18 05:38:30;;;;;;;;;;;23.70;95.50;;;;;;5076355;28;19958;-55
2022/06/18 05:40:56;;;;;;;;;;;23.70;95.50;;;;;;5076222;28;20389;-52
2022/06/18 05:43:21;;;;;;;;;;;23.70;95.40;;;;;;5076143;28;19999;-55
2022/06/18 05:45:47;;;;;;;;;;;23.70;95.40;;;;;;5076181;28;20027;-53
2022/06/18 05:48:12;;;;;;;;;;;23.80;95.50;;;;;;5076070;28;19908;-52
2022/06/18 05:50:38;;;;;;;;;;;23.70;95.50;;;;;;5076172;28;19919;-55
2022/06/18 05:53:03;;;;;;;;;;;23.80;95.40;;;;;;5075653;28;19913;-51
2022/06/18 05:55:29;;;;;;;;;;;23.70;95.50;;;;;;5076002;28;20004;-52
2022/06/18 05:57:55;;;;;;;;;;;23.70;95.70;;;;;;5075999;28;19951;-53
2022/06/18 06:00:22;;;;;;;;;;;23.80;95.50;;;;;;5075978;28;19908;-55
2022/06/18 06:02:47;;;;;;;;;;;23.80;95.50;;;;;;5075913;28;19909;-54
2022/06/18 06:05:13;;;;;;;;;;;23.70;95.40;;;;;;5075479;28;19912;-55
2022/06/18 06:07:39;;;;;;;;;;;23.70;95.40;;;;;;5075368;28;19927;-55
2022/06/18 06:13:04;;;;;;;;;;;23.80;95.60;;;;;;5046513;28;19912;-56
2022/06/18 06:15:29;;;;;;;;;;;23.80;95.70;;;;;;5075215;28;19912;-52
2022/06/18 06:17:55;;;;;;;;;;;23.80;95.70;;;;;;5075281;28;19939;-52
2022/06/18 06:20:28;;;;;;;;;;;23.80;95.60;;;;;;5075461;28;19961;-55
2022/06/18 06:22:54;;;;;;;;;;;23.80;95.60;;;;;;5075470;28;19919;-54
2022/06/18 06:25:20;;;;;;;;;;;23.80;95.60;;;;;;5075115;28;19995;-51
2022/06/18 06:27:45;;;;;;;;;;;23.80;95.60;;;;;;5075451;28;19908;-53
2022/06/18 06:30:12;;;;;;;;;;;23.80;95.60;;;;;;5075194;28;19908;-54
2022/06/18 06:32:37;;;;;;;;;;;23.70;95.70;;;;;;5075030;28;20264;-54
2022/06/18 06:35:03;;;;;;;;;;;23.70;95.70;;;;;;5074623;28;19977;-55
2022/06/18 06:37:28;;;;;;;;;;;23.80;95.80;;;;;;5075237;28;19981;-53
2022/06/18 06:39:54;;;;;;;;;;;23.80;95.80;;;;;;5074541;28;19908;-56
2022/06/18 06:42:19;;;;;;;;;;;23.70;95.70;;;;;;5074590;28;19908;-55
2022/06/18 06:44:44;;;;;;;;;;;23.70;95.60;;;;;;5074738;28;19908;-55
2022/06/18 06:47:10;;;;;;;;;;;23.80;95.60;;;;;;5074569;28;20286;-55
2022/06/18 06:49:35;;;;;;;;;;;23.80;95.70;;;;;;5074748;28;19915;-53
2022/06/18 06:52:01;;;;;;;;;;;23.70;95.70;;;;;;5074721;28;19909;-54
2022/06/18 06:54:26;;;;;;;;;;;23.80;95.80;;;;;;5056667;28;20007;-54
2022/06/18 06:59:36;;;;;;;;;;;23.80;95.80;;;;;;5074480;28;19915;-55
2022/06/18 07:02:05;;;;;;;;;;;23.80;95.90;;;;;;5074634;28;19991;-54
2022/06/18 07:04:30;;;;;;;;;;;23.80;96.00;;;;;;5073488;28;19916;-53
2022/06/18 07:06:57;;;;;;;;;;;23.80;96.00;;;;;;5074273;28;19909;-54
2022/06/18 07:09:23;;;;;;;;;;;23.70;95.90;;;;;;5073636;28;19909;-53
2022/06/18 07:11:49;;;;;;;;;;;23.80;96.10;;;;;;5074095;28;19988;-54
2022/06/18 07:14:14;;;;;;;;;;;23.80;96.00;;;;;;5073972;28;19909;-56
2022/06/18 07:16:47;;;;;;;;;;;23.80;96.00;;;;;;5074348;28;19913;-55
2022/06/18 07:19:13;;;;;;;;;;;23.80;96.10;;;;;;5073983;28;19909;-55
2022/06/18 07:21:38;;;;;;;;;;;23.80;96.10;;;;;;5074301;28;19908;-53
2022/06/18 07:24:04;;;;;;;;;;;23.80;96.10;;;;;;5073937;28;19915;-53
2022/06/18 07:26:29;;;;;;;;;;;23.80;96.10;;;;;;5074248;28;19975;-54
2022/06/18 07:28:55;;;;;;;;;;;23.80;96.20;;;;;;5073605;28;19952;-54
2022/06/18 07:31:25;;;;;;;;;;;23.80;96.20;;;;;;5073871;28;19908;-55
2022/06/18 07:33:51;;;;;;;;;;;23.70;96.20;;;;;;5073828;28;19959;-54
2022/06/18 07:36:17;;;;;;;;;;;23.70;96.20;;;;;;5073536;28;19952;-54
2022/06/18 07:38:42;;;;;;;;;;;23.70;96.20;;;;;;5073431;28;19935;-54
2022/06/18 07:41:08;;;;;;;;;;;23.70;96.20;;;;;;5073534;28;19915;-55
2022/06/18 07:43:35;;;;;;;;;;;23.70;96.30;;;;;;5073903;28;19919;-53
2022/06/18 07:46:01;;;;;;;;;;;23.70;96.30;;;;;;5073522;28;19908;-54
2022/06/18 07:48:27;;;;;;;;;;;23.70;96.30;;;;;;5073491;28;20426;-51
2022/06/18 07:50:52;;;;;;;;;;;23.70;96.30;;;;;;5074283;28;19946;-55
2022/06/18 07:53:19;;;;;;;;;;;23.70;96.30;;;;;;5073626;28;19916;-53
2022/06/18 07:55:45;;;;;;;;;;;23.70;96.30;;;;;;5073288;28;19925;-54
2022/06/18 07:58:10;;;;;;;;;;;23.70;96.30;;;;;;5073617;28;20414;-56
2022/06/18 08:00:39;;;;;;;;;;;23.70;96.40;;;;;;5073321;28;19908;-54
2022/06/18 08:03:05;;;;;;;;;;;23.70;96.40;;;;;;5073807;28;19909;-55
2022/06/18 08:05:31;;;;;;;;;;;23.70;96.40;;;;;;5055636;28;20279;-55
2022/06/18 08:07:56;;;;;;;;;;;23.70;96.40;;;;;;5073465;28;19915;-57
2022/06/18 08:10:21;;;;;;;;;;;23.70;96.40;;;;;;5073265;28;19908;-54
2022/06/18 08:12:47;;;;;;;;;;;23.70;96.40;;;;;;5073634;28;19908;-54
2022/06/18 08:15:12;;;;;;;;;;;23.70;96.40;;;;;;5073437;28;19917;-55
2022/06/18 08:17:38;;;;;;;;;;;23.70;96.40;;;;;;5077163;28;20380;-54
2022/06/18 08:20:04;;;;;;;;;;;23.70;96.40;;;;;;5077689;28;19934;-52
2022/06/18 08:22:30;;;;;;;;;;;23.70;96.40;;;;;;5077523;28;19935;-56
2022/06/18 08:24:56;;;;;;;;;;;23.70;96.40;;;;;;5059459;28;19908;-55
2022/06/18 08:27:22;;;;;;;;;;;23.70;96.40;;;;;;5077212;28;19931;-55
2022/06/18 08:29:48;;;;;;;;;;;23.70;96.40;;;;;;5077875;28;20328;-54
2022/06/18 08:32:13;;;;;;;;;;;23.70;96.40;;;;;;5077219;28;19919;-56
2022/06/18 08:34:39;;;;;;;;;;;23.70;96.40;;;;;;5077144;28;19916;-56
2022/06/18 08:37:05;;;;;;;;;;;23.70;96.40;;;;;;5077046;28;19915;-54
2022/06/18 08:39:30;;;;;;;;;;;23.70;96.40;;;;;;5077054;28;19916;-50
2022/06/18 08:41:56;;;;;;;;;;;23.70;96.40;;;;;;5076832;28;20307;-53
2022/06/18 08:44:40;;;;;;;;;;;23.70;96.40;;;;;;5077547;28;20358;-55
2022/06/18 08:47:05;;;;;;;;;;;23.80;96.40;;;;;;5076801;28;20254;-55
2022/06/18 08:49:43;;;;;;;;;;;23.80;96.40;;;;;;5076800;28;19915;-54
2022/06/18 08:52:27;;;;;;;;;;;23.70;96.40;;;;;;5076846;28;19944;-53
2022/06/18 08:54:56;;;;;;;;;;;23.80;96.40;;;;;;5058681;28;19920;-55
2022/06/18 08:57:25;;;;;;;;;;;23.80;96.40;;;;;;5076747;28;19916;-55
2022/06/18 09:00:07;;;;;;;;;;;23.80;96.40;;;;;;5076961;28;19912;-56
2022/06/18 09:02:38;;;;;;;;;;;23.80;96.40;;;;;;5076870;28;20007;-54
2022/06/18 09:05:42;;;;;;;;;;;23.80;96.40;;;;;;5077012;28;19912;-55
2022/06/18 09:08:26;;;;;;;;;;;23.80;96.40;;;;;;4975470;28;19910;-55
2022/06/18 09:11:01;;;;;;;;;;;23.80;96.40;;;;;;4975934;28;20361;-55
2022/06/18 09:13:30;;;;;;;;;;;23.80;96.40;;;;;;5041477;28;19909;-54
2022/06/18 09:16:00;;;;;;;;;;;23.80;96.40;;;;;;5076254;28;19956;-56
2022/06/18 09:18:52;;;;;;;;;;;23.80;96.40;;;;;;5076531;28;19919;-56
2022/06/18 09:21:25;;;;;;;;;;;23.80;96.40;;;;;;5071235;28;19944;-54
2022/06/18 09:23:55;;;;;;;;;;;23.80;96.40;;;;;;5076308;28;19954;-53
2022/06/18 09:26:23;;;;;;;;;;;23.80;96.40;;;;;;5058277;28;19915;-55
2022/06/18 09:29:14;;;;;;;;;;;23.80;96.40;;;;;;5075581;28;19908;-56
2022/06/18 09:32:00;;;;;;;;;;;23.80;96.40;;;;;;5037631;28;20370;-55
2022/06/18 09:34:46;;;;;;;;;;;23.80;96.40;;;;;;5073759;28;19947;-55
2022/06/18 09:37:15;;;;;;;;;;;23.80;96.40;;;;;;5075127;28;19920;-55
2022/06/18 09:39:42;;;;;;;;;;;23.80;96.40;;;;;;5075871;28;19908;-56
2022/06/18 09:42:18;;;;;;;;;;;23.80;96.40;;;;;;5076001;28;19916;-55
2022/06/18 09:44:43;;;;;;;;;;;23.80;96.40;;;;;;5075713;28;19919;-54
2022/06/18 09:47:19;;;;;;;;;;;23.80;96.40;;;;;;5075415;28;20284;-55
2022/06/18 09:49:45;;;;;;;;;;;23.80;96.40;;;;;;5075713;28;19908;-55
2022/06/18 09:52:13;;;;;;;;;;;23.80;96.40;;;;;;5075580;28;20359;-53
2022/06/18 09:54:45;;;;;;;;;;;23.80;96.40;;;;;;5075768;28;19920;-55
2022/06/18 09:57:12;;;;;;;;;;;23.80;96.40;;;;;;5075451;28;19908;-53
2022/06/18 09:59:41;;;;;;;;;;;23.80;96.40;;;;;;5075359;28;20357;-54
2022/06/18 10:02:39;;;;;;;;;;;23.80;96.40;;;;;;5075604;28;19970;-54
2022/06/18 10:07:51;;;;;;;;;;;23.80;96.40;;;;;;5075294;28;19930;-54
2022/06/18 10:10:18;;;;;;;;;;;23.80;96.40;;;;;;5057740;28;19912;-55
2022/06/18 10:12:53;;;;;;;;;;;23.80;96.40;;;;;;5075638;28;20000;-54
2022/06/18 10:15:20;;;;;;;;;;;23.80;96.40;;;;;;5075470;28;20270;-55
2022/06/18 10:17:45;;;;;;;;;;;23.80;96.40;;;;;;5075126;28;19915;-56
2022/06/18 10:20:37;;;;;;;;;;;23.80;96.40;;;;;;5057483;28;19995;-57
2022/06/18 10:23:05;;;;;;;;;;;23.80;96.40;;;;;;5036918;28;19915;-53
2022/06/18 10:25:43;;;;;;;;;;;23.80;96.40;;;;;;5075377;28;19948;-54
2022/06/18 10:28:09;;;;;;;;;;;23.80;96.40;;;;;;5074892;28;19984;-54
2022/06/18 10:30:34;;;;;;;;;;;23.80;96.40;;;;;;5074892;28;19916;-56
2022/06/18 10:33:05;;;;;;;;;;;23.80;96.40;;;;;;5075144;28;19954;-55
2022/06/18 10:35:50;;;;;;;;;;;23.80;96.40;;;;;;5056870;28;20363;-55
2022/06/18 10:38:18;;;;;;;;;;;23.80;96.40;;;;;;5057254;28;20002;-57
2022/06/18 10:40:58;;;;;;;;;;;23.80;96.40;;;;;;5075026;28;19927;-57
2022/06/18 10:43:29;;;;;;;;;;;23.80;96.40;;;;;;5074782;28;20294;-56
2022/06/18 10:45:56;;;;;;;;;;;23.80;96.40;;;;;;5074978;28;19920;-54
2022/06/18 10:48:26;;;;;;;;;;;23.80;96.50;;;;;;5074618;28;20274;-56
2022/06/18 10:50:53;;;;;;;;;;;23.80;96.40;;;;;;5074594;28;19998;-54
2022/06/18 10:53:20;;;;;;;;;;;23.80;96.40;;;;;;5074472;28;19909;-53
2022/06/18 10:55:57;;;;;;;;;;;23.80;96.50;;;;;;5056608;28;20382;-55
2022/06/18 10:58:22;;;;;;;;;;;23.80;96.50;;;;;;5074538;28;19923;-55
2022/06/18 11:00:59;;;;;;;;;;;23.80;96.50;;;;;;5074388;28;19909;-56
2022/06/18 11:03:26;;;;;;;;;;;23.80;96.50;;;;;;5074669;28;19920;-54
2022/06/18 11:05:52;;;;;;;;;;;23.80;96.50;;;;;;5074369;28;19952;-53
2022/06/18 11:08:19;;;;;;;;;;;23.80;96.50;;;;;;5073896;28;19962;-53
2022/06/18 11:10:53;;;;;;;;;;;23.80;96.50;;;;;;5073879;28;19909;-55
2022/06/18 11:13:37;;;;;;;;;;;23.80;96.50;;;;;;5074077;28;20414;-53
2022/06/18 11:16:12;;;;;;;;;;;23.80;96.50;;;;;;5056337;28;20007;-55
2022/06/18 11:18:51;;;;;;;;;;;23.80;96.50;;;;;;5074170;28;19909;-55
2022/06/18 11:21:29;;;;;;;;;;;23.80;96.50;;;;;;5073986;28;19908;-52
2022/06/18 11:23:57;;;;;;;;;;;23.80;96.50;;;;;;5074246;28;20046;-55
2022/06/18 11:26:24;;;;;;;;;;;23.80;96.50;;;;;;5073913;28;19915;-54
2022/06/18 11:28:52;;;;;;;;;;;23.80;96.50;;;;;;5073991;28;19995;-53
2022/06/18 11:31:29;;;;;;;;;;;23.80;96.50;;;;;;5074061;28;19909;-54
2022/06/18 11:33:57;;;;;;;;;;;23.80;96.50;;;;;;5073973;28;19912;-53
2022/06/18 11:36:32;;;;;;;;;;;23.80;96.50;;;;;;5074141;28;19924;-51
2022/06/18 11:38:58;;;;;;;;;;;23.90;96.50;;;;;;5074226;28;19956;-55
2022/06/18 11:41:23;;;;;;;;;;;23.80;96.50;;;;;;5073863;28;20275;-55
2022/06/18 11:43:53;;;;;;;;;;;23.80;96.50;;;;;;5074144;28;19909;-54
2022/06/18 11:46:38;;;;;;;;;;;23.90;96.50;;;;;;5074008;28;19908;-55
2022/06/18 11:49:24;;;;;;;;;;;23.90;96.50;;;;;;5072619;28;19916;-55
2022/06/18 11:52:13;;;;;;;;;;;23.80;96.50;;;;;;5071886;28;20394;-56
2022/06/18 11:54:38;;;;;;;;;;;23.80;96.50;;;;;;5073226;28;20283;-55
2022/06/18 11:57:16;;;;;;;;;;;23.80;96.50;;;;;;5074107;28;19913;-53
2022/06/18 11:59:52;;;;;;;;;;;23.80;96.50;;;;;;5073429;28;19916;-54
2022/06/18 12:02:26;;;;;;;;;;;23.80;96.50;;;;;;5073906;28;19908;-54
2022/06/18 12:05:05;;;;;;;;;;;23.80;96.50;;;;;;5073816;28;19995;-54
2022/06/18 12:07:36;;;;;;;;;;;23.80;96.50;;;;;;5073573;28;19912;-52
2022/06/18 12:10:10;;;;;;;;;;;23.80;96.50;;;;;;5055727;28;20003;-56
2022/06/18 12:12:42;;;;;;;;;;;23.90;96.50;;;;;;5073626;28;19912;-55
2022/06/18 12:15:10;;;;;;;;;;;23.80;96.50;;;;;;5073483;28;19923;-55
2022/06/18 12:17:36;;;;;;;;;;;23.90;96.50;;;;;;5073274;28;20267;-56
2022/06/18 12:20:12;;;;;;;;;;;23.80;96.50;;;;;;5073369;28;19915;-54
2022/06/18 12:22:56;;;;;;;;;;;23.90;96.50;;;;;;5073780;28;19909;-56
2022/06/18 12:25:36;;;;;;;;;;;23.80;96.50;;;;;;5073271;28;20290;-55
2022/06/18 12:28:11;;;;;;;;;;;23.80;96.50;;;;;;5073620;28;19909;-55
2022/06/18 12:30:36;;;;;;;;;;;23.90;96.50;;;;;;5073374;28;19940;-56
2022/06/18 12:33:08;;;;;;;;;;;23.90;96.50;;;;;;5073587;28;20397;-55
2022/06/18 12:35:42;;;;;;;;;;;23.90;96.50;;;;;;5073056;28;19920;-56
2022/06/18 12:38:26;;;;;;;;;;;23.90;96.60;;;;;;5073072;28;19912;-54
2022/06/18 12:41:06;;;;;;;;;;;23.90;96.50;;;;;;5072577;28;19959;-55
2022/06/18 12:43:44;;;;;;;;;;;23.90;96.60;;;;;;5073086;28;19952;-56
2022/06/18 12:46:22;;;;;;;;;;;23.90;96.60;;;;;;5055158;28;19913;-56
2022/06/18 12:48:48;;;;;;;;;;;23.90;96.50;;;;;;5055326;28;20370;-56
2022/06/18 12:51:22;;;;;;;;;;;23.90;96.50;;;;;;5073047;28;19912;-57
2022/06/18 12:54:07;;;;;;;;;;;23.90;96.60;;;;;;5073673;28;19909;-53
2022/06/18 12:56:48;;;;;;;;;;;23.90;96.60;;;;;;5073045;28;19921;-55
2022/06/18 12:59:32;;;;;;;;;;;23.90;96.60;;;;;;5072982;28;19912;-55
2022/06/18 13:02:05;;;;;;;;;;;23.90;96.60;;;;;;5073372;28;20042;-55
2022/06/18 13:04:37;;;;;;;;;;;23.90;96.50;;;;;;5075908;28;19909;-57
2022/06/18 13:07:25;;;;;;;;;;;23.80;96.50;;;;;;5076727;28;19908;-52
2022/06/18 13:10:11;;;;;;;;;;;23.90;96.60;;;;;;5058864;28;20375;-55
2022/06/18 13:12:36;;;;;;;;;;;23.90;96.60;;;;;;5076513;28;19909;-56
2022/06/18 13:15:02;;;;;;;;;;;23.90;96.60;;;;;;5076798;28;19916;-55
2022/06/18 13:17:33;;;;;;;;;;;23.90;96.60;;;;;;5076360;28;20042;-54
2022/06/18 13:20:02;;;;;;;;;;;23.90;96.60;;;;;;5076291;28;19915;-54
2022/06/18 13:22:28;;;;;;;;;;;23.90;96.60;;;;;;5076217;28;19908;-55
2022/06/18 13:28:10;;;;;;;;;;;23.90;96.60;;;;;;5076304;28;19915;-57
2022/06/18 13:30:59;;;;;;;;;;;23.90;96.60;;;;;;5076264;28;20358;-55
2022/06/18 13:33:45;;;;;;;;;;;23.90;96.60;;;;;;5076080;28;19909;-54
2022/06/18 13:36:33;;;;;;;;;;;23.90;96.60;;;;;;5076178;28;20382;-56
2022/06/18 13:39:06;;;;;;;;;;;23.90;96.60;;;;;;5062674;28;19909;-55
2022/06/18 13:41:35;;;;;;;;;;;23.90;96.60;;;;;;5076139;28;19931;-56
2022/06/18 13:44:07;;;;;;;;;;;23.90;96.60;;;;;;5076034;28;19908;-55
2022/06/18 13:47:02;;;;;;;;;;;23.90;96.60;;;;;;5076268;28;19914;-52
2022/06/18 13:49:31;;;;;;;;;;;23.90;96.60;;;;;;5053847;28;19954;-57
2022/06/18 13:51:59;;;;;;;;;;;23.90;96.80;;;;;;5076250;28;19995;-56
2022/06/18 13:54:25;;;;;;;;;;;23.90;96.60;;;;;;5075875;28;19929;-57
2022/06/18 13:57:01;;;;;;;;;;;23.90;96.60;;;;;;5076170;28;19912;-55
2022/06/18 13:59:27;;;;;;;;;;;23.90;96.60;;;;;;5076059;28;19962;-55
2022/06/18 14:01:55;;;;;;;;;;;23.90;96.60;;;;;;5075616;28;19912;-54
2022/06/18 14:04:35;;;;;;;;;;;23.90;96.60;;;;;;5075937;28;19908;-55
2022/06/18 14:07:02;;;;;;;;;;;23.90;96.60;;;;;;5075376;28;19940;-53
2022/06/18 14:09:30;;;;;;;;;;;23.90;96.60;;;;;;5075432;28;19915;-54
2022/06/18 14:11:55;;;;;;;;;;;23.90;96.60;;;;;;5075303;28;20355;-52
2022/06/18 14:14:31;;;;;;;;;;;23.90;96.60;;;;;;5074549;28;19908;-55
2022/06/18 14:17:01;;;;;;;;;;;23.90;96.60;;;;;;5074922;28;19908;-55
2022/06/18 14:19:27;;;;;;;;;;;23.90;96.60;;;;;;5057281;28;19908;-53
2022/06/18 14:22:21;;;;;;;;;;;23.90;96.60;;;;;;5075047;28;20309;-51
2022/06/18 14:24:58;;;;;;;;;;;23.90;96.60;;;;;;5075400;28;19959;-53
2022/06/18 14:27:27;;;;;;;;;;;23.90;96.60;;;;;;5074856;28;20279;-54
2022/06/18 14:29:53;;;;;;;;;;;23.90;96.60;;;;;;5074769;28;19915;-55
2022/06/18 14:32:27;;;;;;;;;;;23.90;96.60;;;;;;5074902;28;19995;-54
2022/06/18 14:35:03;;;;;;;;;;;23.90;96.60;;;;;;5074804;28;19939;-54
2022/06/18 14:37:30;;;;;;;;;;;23.90;96.60;;;;;;5057163;28;20340;-54
2022/06/18 14:39:57;;;;;;;;;;;23.90;96.60;;;;;;5074720;28;19912;-52
2022/06/18 14:42:42;;;;;;;;;;;23.90;96.60;;;;;;5075017;28;20337;-55
2022/06/18 14:45:24;;;;;;;;;;;23.90;96.60;;;;;;5074622;28;19915;-55